sensor_id;sensor_type;location;lat;lon;timestamp;pressure;altitude;pressure_sealevel;temperature;humidity
75513;BME280;64090;49.770;18.760;2023-07-31T00:00:50;97309.27;;;16.66;80.63
75513;BME280;64090;49.770;18.760;2023-07-31T00:04:04;97319.23;;;16.70;82.52
75513;BME280;64090;49.770;18.760;2023-07-31T00:07:06;97323.40;;;16.77;82.21
75513;BME280;64090;49.770;18.760;2023-07-31T00:10:08;97326.48;;;16.83;81.55
75513;BME280;64090;49.770;18.760;2023-07-31T00:13:10;97328.23;;;16.87;80.93
75513;BME280;64090;49.770;18.760;2023-07-31T00:16:14;97331.55;;;16.87;80.71
75513;BME280;64090;49.770;18.760;2023-07-31T00:19:17;97328.48;;;16.85;80.50
75513;BME280;64090;49.770;18.760;2023-07-31T00:22:21;97329.64;;;16.84;80.44
75513;BME280;64090;49.770;18.760;2023-07-31T00:25:22;97327.70;;;16.81;81.28
75513;BME280;64090;49.770;18.760;2023-07-31T00:28:24;97325.27;;;16.80;81.25
75513;BME280;64090;49.770;18.760;2023-07-31T00:31:26;97325.05;;;16.76;81.30
75513;BME280;64090;49.770;18.760;2023-07-31T00:34:28;97323.70;;;16.70;81.34
75513;BME280;64090;49.770;18.760;2023-07-31T00:37:29;97323.21;;;16.64;81.42
75513;BME280;64090;49.770;18.760;2023-07-31T00:40:35;97323.89;;;16.57;81.82
75513;BME280;64090;49.770;18.760;2023-07-31T00:43:37;97325.48;;;16.48;82.37
75513;BME280;64090;49.770;18.760;2023-07-31T00:46:39;97327.34;;;16.41;81.74
75513;BME280;64090;49.770;18.760;2023-07-31T00:49:41;97332.01;;;16.37;81.81
75513;BME280;64090;49.770;18.760;2023-07-31T00:52:43;97337.73;;;16.35;82.26
75513;BME280;64090;49.770;18.760;2023-07-31T00:55:45;97336.23;;;16.34;82.95
75513;BME280;64090;49.770;18.760;2023-07-31T00:58:47;97331.45;;;16.35;82.15
75513;BME280;64090;49.770;18.760;2023-07-31T01:01:49;97333.27;;;16.36;82.31
75513;BME280;64090;49.770;18.760;2023-07-31T01:04:51;97331.73;;;16.35;82.22
75513;BME280;64090;49.770;18.760;2023-07-31T01:11:36;97333.00;;;16.33;83.04
75513;BME280;64090;49.770;18.760;2023-07-31T01:14:40;97335.00;;;16.30;83.17
75513;BME280;64090;49.770;18.760;2023-07-31T01:17:42;97337.27;;;16.25;83.13
75513;BME280;64090;49.770;18.760;2023-07-31T01:20:48;97340.62;;;16.25;84.07
75513;BME280;64090;49.770;18.760;2023-07-31T01:27:21;97343.47;;;16.29;83.95
75513;BME280;64090;49.770;18.760;2023-07-31T01:30:28;97344.40;;;16.32;83.87
75513;BME280;64090;49.770;18.760;2023-07-31T01:33:36;97347.02;;;16.35;82.77
75513;BME280;64090;49.770;18.760;2023-07-31T01:36:38;97354.38;;;16.36;83.25
75513;BME280;64090;49.770;18.760;2023-07-31T01:39:40;97353.80;;;16.37;84.51
75513;BME280;64090;49.770;18.760;2023-07-31T01:42:42;97353.27;;;16.37;83.23
75513;BME280;64090;49.770;18.760;2023-07-31T01:45:44;97347.30;;;16.37;82.74
75513;BME280;64090;49.770;18.760;2023-07-31T01:48:45;97356.92;;;16.38;83.34
75513;BME280;64090;49.770;18.760;2023-07-31T01:51:50;97357.36;;;16.38;82.96
75513;BME280;64090;49.770;18.760;2023-07-31T01:54:52;97362.00;;;16.40;82.83
75513;BME280;64090;49.770;18.760;2023-07-31T01:57:53;97359.33;;;16.41;83.59
75513;BME280;64090;49.770;18.760;2023-07-31T02:01:00;97361.86;;;16.42;83.25
75513;BME280;64090;49.770;18.760;2023-07-31T02:04:02;97357.67;;;16.43;82.83
75513;BME280;64090;49.770;18.760;2023-07-31T02:07:04;97362.24;;;16.44;82.86
75513;BME280;64090;49.770;18.760;2023-07-31T02:10:06;97360.64;;;16.44;83.27
75513;BME280;64090;49.770;18.760;2023-07-31T02:13:08;97361.06;;;16.45;83.42
75513;BME280;64090;49.770;18.760;2023-07-31T02:16:10;97362.38;;;16.45;83.31
75513;BME280;64090;49.770;18.760;2023-07-31T02:19:12;97364.95;;;16.46;83.05
75513;BME280;64090;49.770;18.760;2023-07-31T02:22:15;97366.20;;;16.47;83.76
75513;BME280;64090;49.770;18.760;2023-07-31T02:25:17;97369.75;;;16.48;83.47
75513;BME280;64090;49.770;18.760;2023-07-31T02:28:19;97374.63;;;16.47;82.90
75513;BME280;64090;49.770;18.760;2023-07-31T02:31:20;97371.20;;;16.48;83.31
75513;BME280;64090;49.770;18.760;2023-07-31T02:34:24;97377.36;;;16.47;83.54
75513;BME280;64090;49.770;18.760;2023-07-31T02:37:26;97382.15;;;16.49;82.84
75513;BME280;64090;49.770;18.760;2023-07-31T02:40:27;97384.52;;;16.50;82.81
75513;BME280;64090;49.770;18.760;2023-07-31T02:43:29;97384.64;;;16.51;82.95
75513;BME280;64090;49.770;18.760;2023-07-31T02:46:31;97385.34;;;16.51;82.77
75513;BME280;64090;49.770;18.760;2023-07-31T02:49:32;97382.61;;;16.51;82.55
75513;BME280;64090;49.770;18.760;2023-07-31T02:52:34;97386.95;;;16.51;83.63
75513;BME280;64090;49.770;18.760;2023-07-31T02:55:36;97389.47;;;16.51;83.45
75513;BME280;64090;49.770;18.760;2023-07-31T02:58:40;97393.81;;;16.50;83.47
75513;BME280;64090;49.770;18.760;2023-07-31T03:01:41;97391.04;;;16.51;83.05
75513;BME280;64090;49.770;18.760;2023-07-31T03:04:43;97391.57;;;16.51;82.91
75513;BME280;64090;49.770;18.760;2023-07-31T03:07:45;97394.85;;;16.52;82.74
75513;BME280;64090;49.770;18.760;2023-07-31T03:10:46;97401.46;;;16.52;82.80
75513;BME280;64090;49.770;18.760;2023-07-31T03:13:51;97402.84;;;16.51;82.79
75513;BME280;64090;49.770;18.760;2023-07-31T03:16:53;97405.96;;;16.52;83.14
75513;BME280;64090;49.770;18.760;2023-07-31T03:19:55;97409.48;;;16.50;83.51
75513;BME280;64090;49.770;18.760;2023-07-31T03:22:56;97409.94;;;16.47;84.14
75513;BME280;64090;49.770;18.760;2023-07-31T03:26:00;97410.60;;;16.44;84.59
75513;BME280;64090;49.770;18.760;2023-07-31T03:29:02;97414.61;;;16.38;85.07
75513;BME280;64090;49.770;18.760;2023-07-31T03:32:04;97413.34;;;16.35;85.14
75513;BME280;64090;49.770;18.760;2023-07-31T03:35:06;97422.29;;;16.34;85.43
75513;BME280;64090;49.770;18.760;2023-07-31T03:38:07;97423.64;;;16.31;86.10
75513;BME280;64090;49.770;18.760;2023-07-31T03:41:13;97423.36;;;16.26;86.24
75513;BME280;64090;49.770;18.760;2023-07-31T03:44:16;97427.98;;;16.25;86.10
75513;BME280;64090;49.770;18.760;2023-07-31T03:47:17;97430.23;;;16.21;85.70
75513;BME280;64090;49.770;18.760;2023-07-31T03:50:20;97427.75;;;16.16;84.82
75513;BME280;64090;49.770;18.760;2023-07-31T03:53:22;97429.64;;;16.13;83.93
75513;BME280;64090;49.770;18.760;2023-07-31T03:56:23;97427.42;;;16.08;83.36
75513;BME280;64090;49.770;18.760;2023-07-31T03:59:27;97429.81;;;16.06;83.26
75513;BME280;64090;49.770;18.760;2023-07-31T04:02:29;97428.83;;;16.04;82.71
75513;BME280;64090;49.770;18.760;2023-07-31T04:05:32;97428.12;;;16.03;82.48
75513;BME280;64090;49.770;18.760;2023-07-31T04:08:34;97428.59;;;16.02;82.41
75513;BME280;64090;49.770;18.760;2023-07-31T04:11:36;97434.30;;;16.03;82.28
75513;BME280;64090;49.770;18.760;2023-07-31T04:14:38;97440.06;;;16.06;82.49
75513;BME280;64090;49.770;18.760;2023-07-31T04:17:40;97444.65;;;16.09;82.82
75513;BME280;64090;49.770;18.760;2023-07-31T04:20:42;97443.44;;;16.14;82.93
75513;BME280;64090;49.770;18.760;2023-07-31T04:23:46;97448.33;;;16.19;83.21
75513;BME280;64090;49.770;18.760;2023-07-31T04:26:48;97450.45;;;16.22;83.32
75513;BME280;64090;49.770;18.760;2023-07-31T04:29:52;97453.78;;;16.25;83.23
75513;BME280;64090;49.770;18.760;2023-07-31T04:32:54;97453.20;;;16.26;83.18
75513;BME280;64090;49.770;18.760;2023-07-31T04:35:55;97449.54;;;16.26;83.01
75513;BME280;64090;49.770;18.760;2023-07-31T04:38:57;97457.20;;;16.25;82.97
75513;BME280;64090;49.770;18.760;2023-07-31T04:41:59;97459.08;;;16.24;82.99
75513;BME280;64090;49.770;18.760;2023-07-31T04:45:01;97461.73;;;16.24;82.97
75513;BME280;64090;49.770;18.760;2023-07-31T04:48:03;97461.02;;;16.24;83.25
75513;BME280;64090;49.770;18.760;2023-07-31T04:51:04;97460.30;;;16.23;83.42
75513;BME280;64090;49.770;18.760;2023-07-31T04:54:06;97461.42;;;16.23;83.14
75513;BME280;64090;49.770;18.760;2023-07-31T04:57:08;97460.05;;;16.24;83.16
75513;BME280;64090;49.770;18.760;2023-07-31T05:00:10;97461.15;;;16.31;83.18
75513;BME280;64090;49.770;18.760;2023-07-31T05:03:11;97455.95;;;16.40;83.01
75513;BME280;64090;49.770;18.760;2023-07-31T05:06:13;97457.15;;;16.50;82.70
75513;BME280;64090;49.770;18.760;2023-07-31T05:09:16;97452.95;;;16.60;82.38
75513;BME280;64090;49.770;18.760;2023-07-31T05:12:18;97453.45;;;16.74;82.12
75513;BME280;64090;49.770;18.760;2023-07-31T05:15:19;97454.02;;;16.95;81.76
75513;BME280;64090;49.770;18.760;2023-07-31T05:18:21;97455.65;;;17.19;81.47
75513;BME280;64090;49.770;18.760;2023-07-31T05:21:23;97455.27;;;17.43;80.91
75513;BME280;64090;49.770;18.760;2023-07-31T05:24:25;97453.60;;;17.70;80.26
75513;BME280;64090;49.770;18.760;2023-07-31T05:27:27;97452.40;;;17.96;79.57
75513;BME280;64090;49.770;18.760;2023-07-31T05:30:32;97446.00;;;18.26;78.80
75513;BME280;64090;49.770;18.760;2023-07-31T05:33:34;97445.15;;;18.54;77.44
75513;BME280;64090;49.770;18.760;2023-07-31T05:36:35;97446.29;;;18.81;76.56
75513;BME280;64090;49.770;18.760;2023-07-31T05:39:37;97445.43;;;19.08;76.14
75513;BME280;64090;49.770;18.760;2023-07-31T05:42:41;97446.53;;;19.31;75.36
75513;BME280;64090;49.770;18.760;2023-07-31T05:45:42;97450.31;;;19.59;73.84
75513;BME280;64090;49.770;18.760;2023-07-31T05:48:44;97448.54;;;19.77;74.00
75513;BME280;64090;49.770;18.760;2023-07-31T05:51:46;97451.06;;;19.89;73.38
75513;BME280;64090;49.770;18.760;2023-07-31T05:54:47;97457.34;;;20.05;72.62
75513;BME280;64090;49.770;18.760;2023-07-31T05:57:49;97457.16;;;20.18;70.58
75513;BME280;64090;49.770;18.760;2023-07-31T06:00:50;97460.04;;;20.30;69.40
75513;BME280;64090;49.770;18.760;2023-07-31T06:03:54;97460.40;;;20.48;70.68
75513;BME280;64090;49.770;18.760;2023-07-31T06:06:56;97460.58;;;20.68;70.75
75513;BME280;64090;49.770;18.760;2023-07-31T06:09:58;97463.87;;;20.89;69.27
75513;BME280;64090;49.770;18.760;2023-07-31T06:13:05;97463.81;;;20.99;68.65
75513;BME280;64090;49.770;18.760;2023-07-31T06:16:10;97462.23;;;21.10;66.72
75513;BME280;64090;49.770;18.760;2023-07-31T06:19:12;97456.09;;;21.22;66.42
75513;BME280;64090;49.770;18.760;2023-07-31T06:22:14;97459.78;;;21.21;64.82
75513;BME280;64090;49.770;18.760;2023-07-31T06:25:16;97462.40;;;21.07;63.79
75513;BME280;64090;49.770;18.760;2023-07-31T06:28:17;97468.72;;;21.00;64.70
75513;BME280;64090;49.770;18.760;2023-07-31T06:31:19;97469.14;;;21.22;65.40
75513;BME280;64090;49.770;18.760;2023-07-31T06:34:24;97469.89;;;21.41;64.84
75513;BME280;64090;49.770;18.760;2023-07-31T06:37:26;97472.03;;;21.58;63.50
75513;BME280;64090;49.770;18.760;2023-07-31T06:40:28;97473.89;;;21.76;63.78
75513;BME280;64090;49.770;18.760;2023-07-31T06:43:30;97472.69;;;21.83;63.37
75513;BME280;64090;49.770;18.760;2023-07-31T06:46:34;97470.89;;;21.96;61.73
75513;BME280;64090;49.770;18.760;2023-07-31T06:49:36;97477.39;;;22.30;61.80
75513;BME280;64090;49.770;18.760;2023-07-31T06:52:38;97478.48;;;22.62;59.87
75513;BME280;64090;49.770;18.760;2023-07-31T06:55:40;97473.91;;;22.77;59.15
75513;BME280;64090;49.770;18.760;2023-07-31T06:58:44;97479.95;;;22.70;60.16
75513;BME280;64090;49.770;18.760;2023-07-31T07:01:46;97481.29;;;22.77;60.42
75513;BME280;64090;49.770;18.760;2023-07-31T07:04:49;97484.22;;;22.63;58.93
75513;BME280;64090;49.770;18.760;2023-07-31T07:07:51;97487.33;;;22.16;59.42
75513;BME280;64090;49.770;18.760;2023-07-31T07:10:53;97488.81;;;21.82;59.36
75513;BME280;64090;49.770;18.760;2023-07-31T07:13:55;97485.02;;;21.82;59.54
75513;BME280;64090;49.770;18.760;2023-07-31T07:16:56;97489.58;;;22.18;58.77
75513;BME280;64090;49.770;18.760;2023-07-31T07:19:59;97491.02;;;22.53;58.65
75513;BME280;64090;49.770;18.760;2023-07-31T07:23:01;97486.42;;;22.79;57.51
75513;BME280;64090;49.770;18.760;2023-07-31T07:26:03;97482.41;;;23.35;56.25
75513;BME280;64090;49.770;18.760;2023-07-31T07:29:04;97484.13;;;24.01;56.64
75513;BME280;64090;49.770;18.760;2023-07-31T07:32:16;97484.88;;;24.58;56.33
75513;BME280;64090;49.770;18.760;2023-07-31T07:35:19;97482.83;;;25.01;54.19
75513;BME280;64090;49.770;18.760;2023-07-31T07:38:21;97485.48;;;25.43;53.33
75513;BME280;64090;49.770;18.760;2023-07-31T07:41:23;97483.81;;;25.37;52.09
75513;BME280;64090;49.770;18.760;2023-07-31T07:44:25;97487.25;;;24.96;52.26
75513;BME280;64090;49.770;18.760;2023-07-31T07:47:28;97484.09;;;24.58;51.34
75513;BME280;64090;49.770;18.760;2023-07-31T07:50:30;97480.91;;;24.14;51.66
75513;BME280;64090;49.770;18.760;2023-07-31T07:53:32;97476.56;;;23.77;53.44
75513;BME280;64090;49.770;18.760;2023-07-31T07:56:34;97478.15;;;23.80;54.03
75513;BME280;64090;49.770;18.760;2023-07-31T07:59:37;97480.10;;;23.92;54.59
75513;BME280;64090;49.770;18.760;2023-07-31T08:02:40;97484.98;;;24.02;53.15
75513;BME280;64090;49.770;18.760;2023-07-31T08:05:41;97483.09;;;23.99;52.53
75513;BME280;64090;49.770;18.760;2023-07-31T08:08:43;97479.58;;;23.92;52.26
75513;BME280;64090;49.770;18.760;2023-07-31T08:11:45;97480.77;;;24.02;52.48
75513;BME280;64090;49.770;18.760;2023-07-31T08:14:47;97480.10;;;24.47;53.19
75513;BME280;64090;49.770;18.760;2023-07-31T08:17:49;97483.27;;;24.81;52.58
75513;BME280;64090;49.770;18.760;2023-07-31T08:20:51;97483.79;;;25.03;53.28
75513;BME280;64090;49.770;18.760;2023-07-31T08:23:53;97487.42;;;25.24;52.16
75513;BME280;64090;49.770;18.760;2023-07-31T08:26:56;97486.23;;;25.41;53.23
75513;BME280;64090;49.770;18.760;2023-07-31T08:30:00;97481.41;;;25.67;51.75
75513;BME280;64090;49.770;18.760;2023-07-31T08:33:02;97474.30;;;25.84;51.96
75513;BME280;64090;49.770;18.760;2023-07-31T08:36:05;97476.38;;;25.86;51.93
75513;BME280;64090;49.770;18.760;2023-07-31T08:39:10;97477.16;;;25.76;50.61
75513;BME280;64090;49.770;18.760;2023-07-31T08:42:12;97487.40;;;25.53;50.91
75513;BME280;64090;49.770;18.760;2023-07-31T08:45:20;97490.60;;;25.43;48.99
75513;BME280;64090;49.770;18.760;2023-07-31T08:48:29;97494.15;;;25.56;50.13
75513;BME280;64090;49.770;18.760;2023-07-31T08:51:34;97491.40;;;25.66;50.01
75513;BME280;64090;49.770;18.760;2023-07-31T08:54:37;97486.11;;;25.64;50.29
75513;BME280;64090;49.770;18.760;2023-07-31T08:57:39;97481.84;;;25.88;50.41
75513;BME280;64090;49.770;18.760;2023-07-31T09:00:42;97479.66;;;26.05;50.68
75513;BME280;64090;49.770;18.760;2023-07-31T09:03:47;97472.73;;;26.04;49.39
75513;BME280;64090;49.770;18.760;2023-07-31T09:06:54;97469.86;;;25.94;49.29
75513;BME280;64090;49.770;18.760;2023-07-31T09:09:58;97467.07;;;25.77;47.98
75513;BME280;64090;49.770;18.760;2023-07-31T09:13:01;97470.82;;;25.64;49.05
75513;BME280;64090;49.770;18.760;2023-07-31T09:16:04;97469.98;;;25.53;48.78
75513;BME280;64090;49.770;18.760;2023-07-31T09:19:06;97469.95;;;25.43;49.45
75513;BME280;64090;49.770;18.760;2023-07-31T09:22:08;97457.71;;;25.59;50.43
75513;BME280;64090;49.770;18.760;2023-07-31T09:25:21;97458.58;;;25.72;50.21
75513;BME280;64090;49.770;18.760;2023-07-31T09:28:30;97464.52;;;25.76;48.28
75513;BME280;64090;49.770;18.760;2023-07-31T09:31:43;97463.45;;;25.79;49.42
75513;BME280;64090;49.770;18.760;2023-07-31T09:34:45;97463.80;;;25.77;49.70
75513;BME280;64090;49.770;18.760;2023-07-31T09:37:52;97461.70;;;25.80;49.26
75513;BME280;64090;49.770;18.760;2023-07-31T09:40:56;97455.75;;;25.67;49.20
75513;BME280;64090;49.770;18.760;2023-07-31T09:44:00;97450.58;;;25.79;47.87
75513;BME280;64090;49.770;18.760;2023-07-31T09:47:02;97448.10;;;26.01;48.22
75513;BME280;64090;49.770;18.760;2023-07-31T09:50:07;97439.06;;;25.83;47.26
75513;BME280;64090;49.770;18.760;2023-07-31T09:53:10;97440.28;;;25.48;47.11
75513;BME280;64090;49.770;18.760;2023-07-31T09:56:15;97437.19;;;25.14;46.17
75513;BME280;64090;49.770;18.760;2023-07-31T09:59:19;97433.41;;;24.93;47.78
75513;BME280;64090;49.770;18.760;2023-07-31T10:02:26;97436.56;;;25.06;46.37
75513;BME280;64090;49.770;18.760;2023-07-31T10:05:40;97433.84;;;24.98;44.70
75513;BME280;64090;49.770;18.760;2023-07-31T10:08:44;97432.71;;;25.02;45.95
75513;BME280;64090;49.770;18.760;2023-07-31T10:12:00;97425.83;;;25.28;46.64
75513;BME280;64090;49.770;18.760;2023-07-31T10:15:03;97419.38;;;25.45;47.53
75513;BME280;64090;49.770;18.760;2023-07-31T10:18:06;97413.93;;;25.50;46.48
75513;BME280;64090;49.770;18.760;2023-07-31T10:21:11;97414.14;;;25.74;45.36
75513;BME280;64090;49.770;18.760;2023-07-31T10:24:14;97414.04;;;26.04;44.70
75513;BME280;64090;49.770;18.760;2023-07-31T10:27:17;97423.05;;;25.99;43.98
75513;BME280;64090;49.770;18.760;2023-07-31T10:30:22;97423.88;;;25.90;42.69
75513;BME280;64090;49.770;18.760;2023-07-31T10:33:25;97422.34;;;25.71;43.76
75513;BME280;64090;49.770;18.760;2023-07-31T10:36:27;97416.38;;;25.71;45.52
75513;BME280;64090;49.770;18.760;2023-07-31T10:39:36;97408.89;;;26.00;45.53
75513;BME280;64090;49.770;18.760;2023-07-31T10:42:53;97405.63;;;26.41;44.64
75513;BME280;64090;49.770;18.760;2023-07-31T10:45:55;97402.17;;;26.69;44.55
75513;BME280;64090;49.770;18.760;2023-07-31T10:48:59;97399.84;;;26.79;43.81
75513;BME280;64090;49.770;18.760;2023-07-31T10:52:03;97397.12;;;26.95;44.10
75513;BME280;64090;49.770;18.760;2023-07-31T10:58:22;97396.23;;;26.51;42.85
75513;BME280;64090;49.770;18.760;2023-07-31T11:01:49;97394.34;;;26.30;42.48
75513;BME280;64090;49.770;18.760;2023-07-31T11:05:10;97393.73;;;26.15;43.44
75513;BME280;64090;49.770;18.760;2023-07-31T11:08:13;97392.63;;;25.99;42.18
75513;BME280;64090;49.770;18.760;2023-07-31T11:11:19;97386.24;;;25.80;43.63
75513;BME280;64090;49.770;18.760;2023-07-31T11:14:22;97382.55;;;25.72;41.82
75513;BME280;64090;49.770;18.760;2023-07-31T11:17:25;97378.96;;;25.30;42.75
75513;BME280;64090;49.770;18.760;2023-07-31T11:20:29;97381.39;;;25.20;43.28
75513;BME280;64090;49.770;18.760;2023-07-31T11:23:32;97375.34;;;25.28;44.91
75513;BME280;64090;49.770;18.760;2023-07-31T11:26:34;97371.04;;;25.64;44.84
75513;BME280;64090;49.770;18.760;2023-07-31T11:29:36;97372.86;;;25.82;44.01
75513;BME280;64090;49.770;18.760;2023-07-31T11:32:38;97375.95;;;25.87;43.55
75513;BME280;64090;49.770;18.760;2023-07-31T11:35:46;97375.82;;;25.86;42.76
75513;BME280;64090;49.770;18.760;2023-07-31T11:38:49;97368.30;;;25.62;41.89
75513;BME280;64090;49.770;18.760;2023-07-31T11:41:51;97372.02;;;25.22;42.09
75513;BME280;64090;49.770;18.760;2023-07-31T11:44:52;97367.83;;;24.92;42.55
75513;BME280;64090;49.770;18.760;2023-07-31T11:47:55;97369.61;;;25.02;43.95
75513;BME280;64090;49.770;18.760;2023-07-31T11:50:58;97367.55;;;25.16;43.78
75513;BME280;64090;49.770;18.760;2023-07-31T11:54:01;97366.46;;;25.23;43.93
75513;BME280;64090;49.770;18.760;2023-07-31T11:57:04;97371.40;;;25.37;42.31
75513;BME280;64090;49.770;18.760;2023-07-31T12:00:08;97361.05;;;25.31;42.54
75513;BME280;64090;49.770;18.760;2023-07-31T12:03:12;97355.67;;;25.42;43.16
75513;BME280;64090;49.770;18.760;2023-07-31T12:06:14;97357.88;;;25.59;42.85
75513;BME280;64090;49.770;18.760;2023-07-31T12:09:15;97353.95;;;25.83;42.32
75513;BME280;64090;49.770;18.760;2023-07-31T12:12:21;97347.45;;;25.97;41.69
75513;BME280;64090;49.770;18.760;2023-07-31T12:15:29;97343.91;;;25.73;40.81
75513;BME280;64090;49.770;18.760;2023-07-31T12:18:38;97343.42;;;25.58;41.06
75513;BME280;64090;49.770;18.760;2023-07-31T12:21:40;97334.04;;;25.61;42.12
75513;BME280;64090;49.770;18.760;2023-07-31T12:24:45;97327.23;;;25.40;40.48
75513;BME280;64090;49.770;18.760;2023-07-31T12:27:46;97322.88;;;25.42;42.42
75513;BME280;64090;49.770;18.760;2023-07-31T12:30:48;97319.64;;;25.62;41.59
75513;BME280;64090;49.770;18.760;2023-07-31T12:33:51;97313.14;;;25.51;42.45
75513;BME280;64090;49.770;18.760;2023-07-31T12:36:53;97311.14;;;25.54;43.19
75513;BME280;64090;49.770;18.760;2023-07-31T12:39:55;97313.13;;;25.62;42.97
75513;BME280;64090;49.770;18.760;2023-07-31T12:43:03;97307.20;;;25.76;42.57
75513;BME280;64090;49.770;18.760;2023-07-31T12:46:05;97305.07;;;25.78;43.03
75513;BME280;64090;49.770;18.760;2023-07-31T12:49:09;97304.73;;;25.81;42.77
75513;BME280;64090;49.770;18.760;2023-07-31T12:52:10;97303.96;;;25.75;42.58
75513;BME280;64090;49.770;18.760;2023-07-31T12:55:12;97303.23;;;25.81;41.96
75513;BME280;64090;49.770;18.760;2023-07-31T12:58:14;97299.64;;;26.10;42.38
75513;BME280;64090;49.770;18.760;2023-07-31T13:01:15;97297.63;;;26.28;42.04
75513;BME280;64090;49.770;18.760;2023-07-31T13:04:17;97295.72;;;26.41;41.48
75513;BME280;64090;49.770;18.760;2023-07-31T13:07:20;97296.69;;;26.43;41.22
75513;BME280;64090;49.770;18.760;2023-07-31T13:10:23;97299.90;;;26.42;39.91
75513;BME280;64090;49.770;18.760;2023-07-31T13:13:28;97294.85;;;26.52;41.11
75513;BME280;64090;49.770;18.760;2023-07-31T13:16:37;97289.38;;;26.76;40.80
75513;BME280;64090;49.770;18.760;2023-07-31T13:19:39;97285.89;;;27.14;41.18
75513;BME280;64090;49.770;18.760;2023-07-31T13:22:40;97284.23;;;27.44;40.89
75513;BME280;64090;49.770;18.760;2023-07-31T13:25:45;97281.25;;;27.80;40.53
75513;BME280;64090;49.770;18.760;2023-07-31T13:28:47;97281.38;;;27.85;40.46
75513;BME280;64090;49.770;18.760;2023-07-31T13:31:49;97280.77;;;27.74;39.65
75513;BME280;64090;49.770;18.760;2023-07-31T13:34:51;97274.47;;;27.52;39.78
75513;BME280;64090;49.770;18.760;2023-07-31T13:37:53;97270.89;;;27.45;40.55
75513;BME280;64090;49.770;18.760;2023-07-31T13:40:55;97269.06;;;27.27;40.60
75513;BME280;64090;49.770;18.760;2023-07-31T13:43:58;97262.93;;;27.15;41.30
75513;BME280;64090;49.770;18.760;2023-07-31T13:46:59;97259.44;;;27.17;41.18
75513;BME280;64090;49.770;18.760;2023-07-31T13:50:02;97260.14;;;27.12;41.07
75513;BME280;64090;49.770;18.760;2023-07-31T13:53:04;97261.65;;;26.98;40.70
75513;BME280;64090;49.770;18.760;2023-07-31T13:56:05;97262.46;;;27.02;41.27
75513;BME280;64090;49.770;18.760;2023-07-31T13:59:07;97258.59;;;27.01;41.59
75513;BME280;64090;49.770;18.760;2023-07-31T14:02:08;97257.63;;;26.97;41.91
75513;BME280;64090;49.770;18.760;2023-07-31T14:05:10;97259.30;;;26.98;41.43
75513;BME280;64090;49.770;18.760;2023-07-31T14:08:12;97263.71;;;27.04;41.00
75513;BME280;64090;49.770;18.760;2023-07-31T14:11:13;97260.91;;;26.97;39.85
75513;BME280;64090;49.770;18.760;2023-07-31T14:14:16;97261.73;;;26.98;40.77
75513;BME280;64090;49.770;18.760;2023-07-31T14:17:19;97259.27;;;27.04;41.10
75513;BME280;64090;49.770;18.760;2023-07-31T14:20:21;97257.71;;;27.08;40.44
75513;BME280;64090;49.770;18.760;2023-07-31T14:23:25;97260.38;;;27.05;40.10
75513;BME280;64090;49.770;18.760;2023-07-31T14:26:27;97254.98;;;27.13;40.31
75513;BME280;64090;49.770;18.760;2023-07-31T14:29:30;97257.73;;;27.30;40.09
75513;BME280;64090;49.770;18.760;2023-07-31T14:32:33;97254.42;;;27.26;39.45
75513;BME280;64090;49.770;18.760;2023-07-31T14:35:34;97253.02;;;26.86;39.67
75513;BME280;64090;49.770;18.760;2023-07-31T14:38:36;97250.80;;;26.50;41.23
75513;BME280;64090;49.770;18.760;2023-07-31T14:41:38;97251.03;;;26.28;42.00
75513;BME280;64090;49.770;18.760;2023-07-31T14:44:40;97250.14;;;26.03;42.71
75513;BME280;64090;49.770;18.760;2023-07-31T14:47:42;97249.15;;;25.84;42.82
75513;BME280;64090;49.770;18.760;2023-07-31T14:50:43;97245.32;;;25.72;43.53
75513;BME280;64090;49.770;18.760;2023-07-31T14:53:45;97239.82;;;25.74;43.38
75513;BME280;64090;49.770;18.760;2023-07-31T14:56:48;97237.05;;;25.85;43.93
75513;BME280;64090;49.770;18.760;2023-07-31T14:59:50;97237.02;;;25.93;43.24
75513;BME280;64090;49.770;18.760;2023-07-31T15:02:52;97231.38;;;25.97;42.97
75513;BME280;64090;49.770;18.760;2023-07-31T15:05:54;97230.61;;;26.04;43.62
75513;BME280;64090;49.770;18.760;2023-07-31T15:08:58;97229.45;;;26.08;43.02
75513;BME280;64090;49.770;18.760;2023-07-31T15:12:00;97225.55;;;25.93;43.55
75513;BME280;64090;49.770;18.760;2023-07-31T15:15:02;97225.78;;;25.92;44.72
75513;BME280;64090;49.770;18.760;2023-07-31T15:18:04;97224.31;;;25.93;44.39
75513;BME280;64090;49.770;18.760;2023-07-31T15:21:06;97225.24;;;25.86;44.50
75513;BME280;64090;49.770;18.760;2023-07-31T15:24:10;97223.41;;;25.72;44.78
75513;BME280;64090;49.770;18.760;2023-07-31T15:27:11;97223.27;;;25.47;44.28
75513;BME280;64090;49.770;18.760;2023-07-31T15:30:13;97217.63;;;25.35;45.63
75513;BME280;64090;49.770;18.760;2023-07-31T15:33:15;97218.19;;;25.32;45.76
75513;BME280;64090;49.770;18.760;2023-07-31T15:36:17;97212.02;;;25.45;46.07
75513;BME280;64090;49.770;18.760;2023-07-31T15:39:18;97211.36;;;25.60;46.04
75513;BME280;64090;49.770;18.760;2023-07-31T15:42:20;97207.25;;;25.85;45.82
75513;BME280;64090;49.770;18.760;2023-07-31T15:45:22;97198.73;;;26.01;45.86
75513;BME280;64090;49.770;18.760;2023-07-31T15:48:24;97193.02;;;25.98;46.14
75513;BME280;64090;49.770;18.760;2023-07-31T15:51:25;97193.23;;;25.97;46.39
75513;BME280;64090;49.770;18.760;2023-07-31T15:54:27;97188.14;;;26.04;45.98
75513;BME280;64090;49.770;18.760;2023-07-31T15:57:29;97184.30;;;26.10;46.12
75513;BME280;64090;49.770;18.760;2023-07-31T16:00:33;97182.21;;;26.01;45.25
75513;BME280;64090;49.770;18.760;2023-07-31T16:03:34;97180.67;;;25.94;45.59
75513;BME280;64090;49.770;18.760;2023-07-31T16:06:36;97173.98;;;25.84;45.44